sensor_id;sensor_type;location;lat;lon;timestamp;temperature;humidity
73833;SHT30;62179;48.444;-4.464;2022-12-07T06:28:29;6.44;78.99
73833;SHT30;62179;48.444;-4.464;2022-12-07T06:30:59;6.49;78.77
73833;SHT30;62179;48.444;-4.464;2022-12-07T06:33:25;6.52;78.64
73833;SHT30;62179;48.444;-4.464;2022-12-07T06:35:51;6.57;78.67
73833;SHT30;62179;48.444;-4.464;2022-12-07T06:38:16;6.59;78.72
73833;SHT30;62179;48.444;-4.464;2022-12-07T06:40:42;6.64;78.59
73833;SHT30;62179;48.444;-4.464;2022-12-07T06:43:07;6.65;78.35
73833;SHT30;62179;48.444;-4.464;2022-12-07T06:45:33;6.63;78.77
73833;SHT30;62179;48.444;-4.464;2022-12-07T06:47:58;6.63;78.99
73833;SHT30;62179;48.444;-4.464;2022-12-07T06:50:23;6.61;78.98
73833;SHT30;62179;48.444;-4.464;2022-12-07T06:52:51;6.59;78.98
73833;SHT30;62179;48.444;-4.464;2022-12-07T06:55:16;6.61;79.17
73833;SHT30;62179;48.444;-4.464;2022-12-07T06:57:42;6.63;79.12
73833;SHT30;62179;48.444;-4.464;2022-12-07T07:00:07;6.64;79.08
73833;SHT30;62179;48.444;-4.464;2022-12-07T07:02:33;6.67;78.78
73833;SHT30;62179;48.444;-4.464;2022-12-07T07:04:58;6.67;79.11
73833;SHT30;62179;48.444;-4.464;2022-12-07T07:07:24;6.67;79.29
73833;SHT30;62179;48.444;-4.464;2022-12-07T07:09:49;6.65;79.05
73833;SHT30;62179;48.444;-4.464;2022-12-07T07:12:15;6.67;79.27
73833;SHT30;62179;48.444;-4.464;2022-12-07T07:14:40;6.68;79.22
73833;SHT30;62179;48.444;-4.464;2022-12-07T07:17:06;6.68;79.03
73833;SHT30;62179;48.444;-4.464;2022-12-07T07:19:32;6.69;78.81
73833;SHT30;62179;48.444;-4.464;2022-12-07T07:21:57;6.69;78.96
73833;SHT30;62179;48.444;-4.464;2022-12-07T07:24:23;6.71;78.71
73833;SHT30;62179;48.444;-4.464;2022-12-07T07:26:48;6.71;78.61
73833;SHT30;62179;48.444;-4.464;2022-12-07T07:29:13;6.75;78.39
73833;SHT30;62179;48.444;-4.464;2022-12-07T07:31:39;6.79;78.25
73833;SHT30;62179;48.444;-4.464;2022-12-07T07:34:04;6.78;78.40
73833;SHT30;62179;48.444;-4.464;2022-12-07T07:36:30;6.78;78.38
73833;SHT30;62179;48.444;-4.464;2022-12-07T07:38:55;6.79;78.73
73833;SHT30;62179;48.444;-4.464;2022-12-07T07:41:20;6.82;78.40
73833;SHT30;62179;48.444;-4.464;2022-12-07T07:43:46;6.85;78.14
73833;SHT30;62179;48.444;-4.464;2022-12-07T07:46:11;6.89;77.48
73833;SHT30;62179;48.444;-4.464;2022-12-07T07:48:36;6.92;77.35
73833;SHT30;62179;48.444;-4.464;2022-12-07T07:51:05;6.96;77.34
73833;SHT30;62179;48.444;-4.464;2022-12-07T07:53:32;6.99;77.12
73833;SHT30;62179;48.444;-4.464;2022-12-07T07:55:57;6.99;77.58
73833;SHT30;62179;48.444;-4.464;2022-12-07T07:58:23;7.00;77.52
73833;SHT30;62179;48.444;-4.464;2022-12-07T08:00:49;7.03;77.44
73833;SHT30;62179;48.444;-4.464;2022-12-07T08:03:15;7.08;77.32
73833;SHT30;62179;48.444;-4.464;2022-12-07T08:05:40;7.05;77.42
73833;SHT30;62179;48.444;-4.464;2022-12-07T08:08:06;7.09;77.43
73833;SHT30;62179;48.444;-4.464;2022-12-07T08:10:31;7.13;77.27
73833;SHT30;62179;48.444;-4.464;2022-12-07T08:12:57;7.12;77.40
73833;SHT30;62179;48.444;-4.464;2022-12-07T08:15:46;7.12;77.41
73833;SHT30;62179;48.444;-4.464;2022-12-07T08:18:13;7.10;77.28
73833;SHT30;62179;48.444;-4.464;2022-12-07T08:20:39;7.13;77.53
73833;SHT30;62179;48.444;-4.464;2022-12-07T08:23:07;7.16;77.38
73833;SHT30;62179;48.444;-4.464;2022-12-07T08:25:33;7.19;77.41
73833;SHT30;62179;48.444;-4.464;2022-12-07T08:27:58;7.17;77.42
73833;SHT30;62179;48.444;-4.464;2022-12-07T08:30:28;7.22;77.46
73833;SHT30;62179;48.444;-4.464;2022-12-07T08:32:53;7.23;77.54
73833;SHT30;62179;48.444;-4.464;2022-12-07T08:35:19;7.22;77.35
73833;SHT30;62179;48.444;-4.464;2022-12-07T08:37:44;7.23;77.44
73833;SHT30;62179;48.444;-4.464;2022-12-07T08:40:11;7.24;77.68
73833;SHT30;62179;48.444;-4.464;2022-12-07T08:42:42;7.24;77.69
73833;SHT30;62179;48.444;-4.464;2022-12-07T08:45:11;7.27;77.93
73833;SHT30;62179;48.444;-4.464;2022-12-07T08:47:40;7.26;78.03
73833;SHT30;62179;48.444;-4.464;2022-12-07T08:50:08;7.30;78.34
73833;SHT30;62179;48.444;-4.464;2022-12-07T08:52:35;7.30;78.19
73833;SHT30;62179;48.444;-4.464;2022-12-07T08:55:02;7.31;77.52
73833;SHT30;62179;48.444;-4.464;2022-12-07T08:57:29;7.30;77.32
73833;SHT30;62179;48.444;-4.464;2022-12-07T08:59:55;7.33;77.25
73833;SHT30;62179;48.444;-4.464;2022-12-07T09:02:21;7.37;77.67
73833;SHT30;62179;48.444;-4.464;2022-12-07T09:04:46;7.42;77.76
73833;SHT30;62179;48.444;-4.464;2022-12-07T09:07:12;7.43;76.55
73833;SHT30;62179;48.444;-4.464;2022-12-07T09:09:37;7.47;76.85
73833;SHT30;62179;48.444;-4.464;2022-12-07T09:12:03;7.54;76.77
73833;SHT30;62179;48.444;-4.464;2022-12-07T09:14:28;7.58;76.06
73833;SHT30;62179;48.444;-4.464;2022-12-07T09:16:54;7.60;76.19
73833;SHT30;62179;48.444;-4.464;2022-12-07T09:19:20;7.60;76.56
73833;SHT30;62179;48.444;-4.464;2022-12-07T09:21:52;7.61;76.60
73833;SHT30;62179;48.444;-4.464;2022-12-07T09:24:17;7.70;76.22
73833;SHT30;62179;48.444;-4.464;2022-12-07T09:26:43;7.71;75.35
73833;SHT30;62179;48.444;-4.464;2022-12-07T09:29:10;7.74;75.17
73833;SHT30;62179;48.444;-4.464;2022-12-07T09:31:38;7.79;74.80
73833;SHT30;62179;48.444;-4.464;2022-12-07T09:34:04;7.81;75.46
73833;SHT30;62179;48.444;-4.464;2022-12-07T09:36:31;7.87;75.60
73833;SHT30;62179;48.444;-4.464;2022-12-07T09:38:57;7.92;74.44
73833;SHT30;62179;48.444;-4.464;2022-12-07T09:41:25;7.99;75.26
73833;SHT30;62179;48.444;-4.464;2022-12-07T09:43:53;8.06;74.81
73833;SHT30;62179;48.444;-4.464;2022-12-07T09:46:23;8.13;75.30
73833;SHT30;62179;48.444;-4.464;2022-12-07T09:48:49;8.24;74.66
73833;SHT30;62179;48.444;-4.464;2022-12-07T09:51:20;8.28;74.11
73833;SHT30;62179;48.444;-4.464;2022-12-07T09:53:50;8.35;74.33
73833;SHT30;62179;48.444;-4.464;2022-12-07T09:56:30;8.39;74.25
73833;SHT30;62179;48.444;-4.464;2022-12-07T10:02:48;8.59;73.69
73833;SHT30;62179;48.444;-4.464;2022-12-07T10:29:21;9.35;68.36
73833;SHT30;62179;48.444;-4.464;2022-12-07T10:32:03;9.35;69.16
73833;SHT30;62179;48.444;-4.464;2022-12-07T10:34:32;9.31;67.81
73833;SHT30;62179;48.444;-4.464;2022-12-07T10:37:17;9.26;69.99
73833;SHT30;62179;48.444;-4.464;2022-12-07T10:39:48;9.36;69.31
73833;SHT30;62179;48.444;-4.464;2022-12-07T10:42:28;9.35;68.03
73833;SHT30;62179;48.444;-4.464;2022-12-07T10:53:53;9.26;67.25
73833;SHT30;62179;48.444;-4.464;2022-12-07T11:13:02;9.69;67.04
73833;SHT30;62179;48.444;-4.464;2022-12-07T11:15:52;9.72;66.16
73833;SHT30;62179;48.444;-4.464;2022-12-07T11:18:32;9.77;65.61
73833;SHT30;62179;48.444;-4.464;2022-12-07T11:24:02;9.89;66.43
73833;SHT30;62179;48.444;-4.464;2022-12-07T11:26:52;9.87;65.26
73833;SHT30;62179;48.444;-4.464;2022-12-07T11:32:29;9.87;67.58
73833;SHT30;62179;48.444;-4.464;2022-12-07T11:37:58;9.87;66.21
73833;SHT30;62179;48.444;-4.464;2022-12-07T11:40:34;9.89;67.95
73833;SHT30;62179;48.444;-4.464;2022-12-07T11:45:32;10.01;67.45
73833;SHT30;62179;48.444;-4.464;2022-12-07T11:48:06;10.07;66.63
73833;SHT30;62179;48.444;-4.464;2022-12-07T11:56:03;10.14;66.94
73833;SHT30;62179;48.444;-4.464;2022-12-07T11:58:35;10.20;65.48
73833;SHT30;62179;48.444;-4.464;2022-12-07T12:01:26;10.27;65.85
73833;SHT30;62179;48.444;-4.464;2022-12-07T12:03:58;10.30;65.75
73833;SHT30;62179;48.444;-4.464;2022-12-07T12:06:25;10.34;65.70
73833;SHT30;62179;48.444;-4.464;2022-12-07T12:09:02;10.40;65.78
73833;SHT30;62179;48.444;-4.464;2022-12-07T12:22:47;10.48;63.47
73833;SHT30;62179;48.444;-4.464;2022-12-07T12:25:25;10.44;64.06
73833;SHT30;62179;48.444;-4.464;2022-12-07T12:27:55;10.45;64.63
73833;SHT30;62179;48.444;-4.464;2022-12-07T12:33:12;10.48;65.55
73833;SHT30;62179;48.444;-4.464;2022-12-07T12:35:38;10.45;65.60
73833;SHT30;62179;48.444;-4.464;2022-12-07T12:40:53;10.41;63.66
73833;SHT30;62179;48.444;-4.464;2022-12-07T12:43:50;10.30;64.94
73833;SHT30;62179;48.444;-4.464;2022-12-07T12:54:22;10.13;66.13
73833;SHT30;62179;48.444;-4.464;2022-12-07T12:57:15;10.21;65.66
73833;SHT30;62179;48.444;-4.464;2022-12-07T13:02:36;10.17;64.35
73833;SHT30;62179;48.444;-4.464;2022-12-07T13:18:14;10.21;64.99
73833;SHT30;62179;48.444;-4.464;2022-12-07T13:20:49;10.28;65.30
73833;SHT30;62179;48.444;-4.464;2022-12-07T13:29:20;10.42;63.99
73833;SHT30;62179;48.444;-4.464;2022-12-07T13:35:34;10.34;64.11
73833;SHT30;62179;48.444;-4.464;2022-12-07T13:38:34;10.30;65.87
73833;SHT30;62179;48.444;-4.464;2022-12-07T13:43:55;10.21;66.09
73833;SHT30;62179;48.444;-4.464;2022-12-07T13:46:53;10.25;67.22
73833;SHT30;62179;48.444;-4.464;2022-12-07T13:49:48;10.25;66.10
73833;SHT30;62179;48.444;-4.464;2022-12-07T13:52:24;10.22;65.84
73833;SHT30;62179;48.444;-4.464;2022-12-07T13:54:57;10.24;66.52
73833;SHT30;62179;48.444;-4.464;2022-12-07T13:57:31;10.21;68.06
73833;SHT30;62179;48.444;-4.464;2022-12-07T14:00:13;10.28;68.03
73833;SHT30;62179;48.444;-4.464;2022-12-07T14:03:04;10.35;67.91
73833;SHT30;62179;48.444;-4.464;2022-12-07T14:06:07;10.40;67.84
73833;SHT30;62179;48.444;-4.464;2022-12-07T14:08:35;10.41;67.21
73833;SHT30;62179;48.444;-4.464;2022-12-07T14:11:03;10.44;66.89
73833;SHT30;62179;48.444;-4.464;2022-12-07T14:13:35;10.46;65.70
73833;SHT30;62179;48.444;-4.464;2022-12-07T14:18:54;10.52;66.00
73833;SHT30;62179;48.444;-4.464;2022-12-07T14:21:22;10.56;67.63
73833;SHT30;62179;48.444;-4.464;2022-12-07T14:24:18;10.51;66.78
73833;SHT30;62179;48.444;-4.464;2022-12-07T14:26:49;10.48;67.75
73833;SHT30;62179;48.444;-4.464;2022-12-07T14:31:46;10.52;68.08
73833;SHT30;62179;48.444;-4.464;2022-12-07T14:34:12;10.53;67.91
73833;SHT30;62179;48.444;-4.464;2022-12-07T14:36:38;10.55;67.51
73833;SHT30;62179;48.444;-4.464;2022-12-07T14:39:03;10.52;67.62
73833;SHT30;62179;48.444;-4.464;2022-12-07T14:41:32;10.49;68.11
73833;SHT30;62179;48.444;-4.464;2022-12-07T14:44:29;10.52;68.17
73833;SHT30;62179;48.444;-4.464;2022-12-07T14:47:22;10.56;68.40
73833;SHT30;62179;48.444;-4.464;2022-12-07T14:49:48;10.61;68.91
73833;SHT30;62179;48.444;-4.464;2022-12-07T15:21:36;10.34;69.55
73833;SHT30;62179;48.444;-4.464;2022-12-07T15:35:29;10.11;70.11
73833;SHT30;62179;48.444;-4.464;2022-12-07T16:06:19;9.59;71.40
73833;SHT30;62179;48.444;-4.464;2022-12-07T16:44:29;8.52;73.91
73833;SHT30;62179;48.444;-4.464;2022-12-07T16:51:07;8.37;74.25
73833;SHT30;62179;48.444;-4.464;2022-12-07T17:53:30;7.75;76.66
73833;SHT30;62179;48.444;-4.464;2022-12-07T18:03:26;7.74;77.28
73833;SHT30;62179;48.444;-4.464;2022-12-07T18:13:40;7.84;77.66
73833;SHT30;62179;48.444;-4.464;2022-12-07T18:27:22;7.92;77.81
73833;SHT30;62179;48.444;-4.464;2022-12-07T18:30:18;7.95;77.63
73833;SHT30;62179;48.444;-4.464;2022-12-07T18:39:48;8.03;77.88
73833;SHT30;62179;48.444;-4.464;2022-12-07T18:45:59;8.21;78.23
73833;SHT30;62179;48.444;-4.464;2022-12-07T18:56:23;8.26;78.68
73833;SHT30;62179;48.444;-4.464;2022-12-07T18:58:52;8.30;78.88
73833;SHT30;62179;48.444;-4.464;2022-12-07T19:41:14;8.45;79.36
73833;SHT30;62179;48.444;-4.464;2022-12-07T19:47:48;8.43;79.24
73833;SHT30;62179;48.444;-4.464;2022-12-07T20:29:44;8.24;79.51
73833;SHT30;62179;48.444;-4.464;2022-12-07T20:47:02;8.02;79.22
73833;SHT30;62179;48.444;-4.464;2022-12-07T20:53:31;8.12;79.72
73833;SHT30;62179;48.444;-4.464;2022-12-07T21:43:23;8.01;80.72
73833;SHT30;62179;48.444;-4.464;2022-12-07T22:04:51;8.08;80.14
73833;SHT30;62179;48.444;-4.464;2022-12-07T22:33:29;7.87;80.24
73833;SHT30;62179;48.444;-4.464;2022-12-07T22:39:40;7.87;80.59
